Air Sicilia Virtual Airways - Route

Air Sicilia Virtual Airways - SIC064L

( IT ) LIRI
Salerno Costa d'Amalfi Airport
SALERNO ( QSR )
plane_to ( IT ) LIRL
Latina Airport
LATINA ( QLT )
Mediterraneo TOUR VFR - LEG: 4

AIRPORT NEAR NAVIGATION AIDS

Type Name Frequency

METAR / TAF
LIRI 211250Z 18012KT 9999 FEW030 20/13 Q1017

RUNWAY INFORMATION

Runway Runway length Runway width Runway elevation Runway displaced threshold Runway heading
05 4577 148 82 0 48
23 4577 148 119 312 228

AIRPORT FREQUENCIES

Type Name Frequency
AFIS SALERNO IN 119.175 MHZ

AIRPORT NEAR NAVIGATION AIDS

Type Name Frequency
NDB Latina 393 KHZ
VOR-DME Latina 111200 KHZ
NDB Latina 379 KHZ

METAR / TAF
LIRL 211255Z 22006KT 9999 SCT020 SCT040 19/13 Q1015

RUNWAY INFORMATION

Runway Runway length Runway width Runway elevation Runway displaced threshold Runway heading
12 5577 131 93 0 124.5
30 5577 131 57 0 304.5

AIRPORT FREQUENCIES

Type Name Frequency
APP APP 122.1 MHZ
TWR TWR 119.15 MHZ

Flightplan

passando per Torre del Greco

Air Sicilia Virtual Airways Fleets

AVAILABLE AIRCRAFTS for route at this time in Salerno Costa d'Amalfi Airport
C172 - Cessna 172 Skyhawk
( US ) Cessna

Aircraft in fleet: 13

153 NM

Distance in nautical miles.

€ 100,00

Ticket price for this flight.

Nr. 4

Leg



12-11-2018
Aerosoft Airport Rio de Janeiro International V2.0 XP

L'Aeroporto Internazionale di Rio de Janeiro-Galeão (IATA: GIG, ICAO: SBGL), costruito nel 1952 nel quartiere di Ilha do Governador ed intitolato al musicista Antônio Carlos Jobim, è il principale aeroporto internazio ....


15-10-2018
Aerosoft A320 Family professional

La gamma di aeromobili A320 è una delle più comuni nei cieli. Questi aerei di linea a doppio-getto a corto e medio raggio si sono dimostrati convenienti, affidabili e prontamente disponibili, rendendoli le opzioni migl ....


10-10-2018
Motore critico ( Critical Engine )

Il motore critico di un velivolo ad ala fissa multi-motore è il motore che, in caso di guasto, influirebbe negativamente sulle prestazioni o sulla capacità di manovra di un aereo. Sui velivoli ad elica, vi è un ....


04-10-2018
Aerosoft Dortmund XP

Scopri il centro della regione della Ruhr su XPlane 11 - lo scenario Dortmund XP è una ricostruzione completa della città di Dortmund per il simulatore di volo targato Laminar. Oltre all'intera area urbana di Dortmu ....


07-08-2018
Aerosoft Professional Flight Planner PFPX

PFPX - Professional Flight Planner X - è un nuovo ed innovativo strumento di pianificazione del volo sviluppato da piloti e dispatcher del mondo reale. È un'aggiunta preziosa e realistica alla tua esperienza di simulaz ....